VOBG/BLR METAR and TAF weather

Enter ICAO airport designator
Station Type Date Time Source
VOBG METAR 2018/12/19 03:30 UTC NOAA

VOBG 190330Z 02002KT 6000 SCT012 19/14 Q1019


Station Type Date Time Source
VOBG Decoded METAR 2018/12/19 03:30 UTC NOAA

Bangalore / Hindustan, India (VOBG) 12-57N 077-40E
Dec 18, 2018 - 10:30 PM EST / 2018.12.19 0330 UTC
Wind: from the NNE (020 degrees) at 2 MPH (2 KT):0
Visibility: 3 mile(s):0
Sky conditions: partly cloudy
Temperature: 66 F (19 C)
Dew Point: 57 F (14 C)
Relative Humidity: 72%
Pressure (altimeter): 30.09 in. Hg (1019 hPa)
ob: VOBG 190330Z 02002KT 6000 SCT012 19/14 Q1019
cycle: 3

Station Type Date Time Source
VOBG TAF 2018/07/15 00:00 UTC NOAA

VOBG 142300Z 1500/1509 27010KT 6000 SCT010 BKN080
TEMPO 1500/1503 5000 BR SCT008 BKN080


Example: see airport list